createdAt,value
2019-01-27T00:01:09.231Z,5.40
2019-01-27T00:03:38.153Z,5.40
2019-01-27T00:06:07.233Z,5.30
2019-01-27T00:08:36.279Z,5.30
2019-01-27T00:11:05.630Z,5.30
2019-01-27T00:13:34.983Z,5.30
2019-01-27T00:16:04.187Z,5.40
2019-01-27T00:18:33.319Z,5.30
2019-01-27T00:21:02.352Z,5.30
2019-01-27T00:23:31.312Z,5.30
2019-01-27T00:26:00.283Z,5.30
2019-01-27T00:28:29.585Z,5.40
2019-01-27T00:30:58.581Z,5.30
2019-01-27T00:33:27.700Z,5.30
2019-01-27T00:35:56.944Z,5.30
2019-01-27T00:38:25.978Z,5.30
2019-01-27T00:40:55.295Z,5.30
2019-01-27T00:43:24.369Z,5.40
2019-01-27T00:45:53.750Z,5.40
2019-01-27T00:48:22.832Z,5.40
2019-01-27T00:50:51.761Z,5.30
2019-01-27T00:53:20.878Z,5.40
2019-01-27T00:55:50.266Z,5.40
2019-01-27T00:58:19.261Z,5.40
2019-01-27T01:00:48.357Z,5.40
2019-01-27T01:03:17.798Z,5.40
2019-01-27T01:05:46.944Z,5.40
2019-01-27T01:08:16.240Z,5.40
2019-01-27T01:10:45.344Z,5.40
2019-01-27T01:13:14.408Z,5.40
2019-01-27T01:15:43.517Z,5.40
2019-01-27T01:18:12.566Z,5.40
2019-01-27T01:20:41.917Z,5.40
2019-01-27T01:23:11.042Z,5.40
2019-01-27T01:25:40.377Z,5.40
2019-01-27T01:28:09.487Z,5.40
2019-01-27T01:30:38.622Z,5.40
2019-01-27T01:33:07.724Z,5.40
2019-01-27T01:35:36.838Z,5.40
2019-01-27T01:38:06.467Z,5.40
2019-01-27T01:40:35.570Z,5.40
2019-01-27T01:43:04.745Z,5.40
2019-01-27T01:45:34.332Z,5.40
2019-01-27T01:48:03.994Z,5.40
2019-01-27T01:50:33.133Z,5.40
2019-01-27T01:53:02.948Z,5.50
2019-01-27T01:55:31.921Z,5.40
2019-01-27T01:58:00.974Z,5.50
2019-01-27T02:00:30.419Z,5.50
2019-01-27T02:02:59.450Z,5.50
2019-01-27T02:05:28.509Z,5.50
2019-01-27T02:07:57.549Z,5.50
2019-01-27T02:10:26.584Z,5.50
2019-01-27T02:12:55.616Z,5.50
2019-01-27T02:15:57.492Z,5.40
2019-01-27T02:18:27.126Z,5.40
2019-01-27T02:20:56.364Z,5.40
2019-01-27T02:23:25.699Z,5.40
2019-01-27T02:25:54.757Z,5.40
2019-01-27T02:28:23.964Z,5.50
2019-01-27T02:30:53.166Z,5.50
2019-01-27T02:33:22.241Z,5.50
2019-01-27T02:35:51.341Z,5.50
2019-01-27T02:38:20.400Z,5.60
2019-01-27T02:40:49.504Z,5.60
2019-01-27T02:43:18.558Z,5.60
2019-01-27T02:45:47.574Z,5.60
2019-01-27T02:48:16.629Z,5.60
2019-01-27T02:50:45.592Z,5.60
2019-01-27T02:53:14.889Z,5.60
2019-01-27T02:55:43.978Z,5.60
2019-01-27T02:58:13.363Z,5.60
2019-01-27T03:00:42.321Z,5.60
2019-01-27T03:03:11.339Z,5.60
2019-01-27T03:05:51.345Z,5.60
2019-01-27T03:08:20.446Z,5.60
2019-01-27T03:10:49.514Z,5.60
2019-01-27T03:13:18.596Z,5.60
2019-01-27T03:15:47.897Z,5.60
2019-01-27T03:18:17.045Z,5.60
2019-01-27T03:20:46.090Z,5.60
2019-01-27T03:23:15.225Z,5.60
2019-01-27T03:25:44.210Z,5.60
2019-01-27T03:28:13.141Z,5.60
2019-01-27T03:30:42.178Z,5.60
2019-01-27T03:33:11.282Z,5.60
2019-01-27T03:35:40.328Z,5.70
2019-01-27T03:38:09.343Z,5.70
2019-01-27T03:40:38.711Z,5.70
2019-01-27T03:43:07.992Z,5.60
2019-01-27T03:45:37.030Z,5.60
2019-01-27T03:48:06.096Z,5.60
2019-01-27T03:50:35.202Z,5.60
2019-01-27T03:53:04.402Z,5.70
2019-01-27T03:55:33.648Z,5.60
2019-01-27T03:58:02.696Z,5.60
2019-01-27T04:00:31.710Z,5.60
2019-01-27T04:03:00.690Z,5.60
2019-01-27T04:05:29.801Z,5.60
2019-01-27T04:07:58.754Z,5.60
2019-01-27T04:10:27.760Z,5.60
2019-01-27T04:12:56.942Z,5.60
2019-01-27T04:15:25.977Z,5.60
2019-01-27T04:17:55.349Z,5.60
2019-01-27T04:20:24.349Z,5.60
2019-01-27T04:22:53.384Z,5.60
2019-01-27T04:25:22.300Z,5.60
2019-01-27T04:27:51.336Z,5.60
2019-01-27T04:30:35.680Z,5.60
2019-01-27T04:33:04.873Z,5.60
2019-01-27T04:35:34.525Z,5.60
2019-01-27T04:38:03.711Z,5.60
2019-01-27T04:40:32.792Z,5.60
2019-01-27T04:43:01.877Z,5.60
2019-01-27T04:45:36.181Z,5.60
2019-01-27T04:48:08.507Z,5.70
2019-01-27T04:50:37.636Z,5.70
2019-01-27T04:53:06.904Z,5.70
2019-01-27T04:55:35.884Z,5.70
2019-01-27T04:58:05.851Z,5.80
2019-01-27T05:00:34.909Z,5.80
2019-01-27T05:03:27.356Z,5.80
2019-01-27T05:05:56.445Z,5.80
2019-01-27T05:08:25.489Z,5.80
2019-01-27T05:10:54.501Z,5.80
2019-01-27T05:13:23.480Z,5.80
2019-01-27T05:15:52.521Z,5.80
2019-01-27T05:18:21.619Z,5.80
2019-01-27T05:20:50.497Z,5.80
2019-01-27T05:23:19.565Z,5.80
2019-01-27T05:25:48.668Z,5.80
2019-01-27T05:28:17.741Z,5.90
2019-01-27T05:30:46.739Z,5.90
2019-01-27T05:33:15.932Z,5.90
2019-01-27T05:35:44.970Z,5.80
2019-01-27T05:38:13.949Z,5.90
2019-01-27T05:40:42.972Z,5.90
2019-01-27T05:43:12.054Z,5.80
2019-01-27T05:45:41.233Z,5.90
2019-01-27T05:48:10.270Z,5.90
2019-01-27T05:50:39.478Z,5.90
2019-01-27T05:53:08.474Z,5.90
2019-01-27T05:55:37.481Z,5.90
2019-01-27T05:58:06.497Z,5.90
2019-01-27T06:00:40.954Z,5.90
2019-01-27T06:03:09.952Z,5.90
2019-01-27T06:05:39.018Z,5.90
2019-01-27T06:08:08.068Z,5.90
2019-01-27T06:10:37.691Z,5.90
2019-01-27T06:13:06.589Z,5.90
2019-01-27T06:15:35.586Z,5.90
2019-01-27T06:18:04.621Z,5.90
2019-01-27T06:20:33.601Z,5.90
2019-01-27T06:23:02.530Z,5.90
2019-01-27T06:25:31.558Z,5.90
2019-01-27T06:28:00.625Z,5.90
2019-01-27T06:30:29.806Z,5.90
2019-01-27T06:33:23.954Z,5.90
2019-01-27T06:35:53.040Z,5.90
2019-01-27T06:38:22.069Z,5.90
2019-01-27T06:40:51.141Z,5.90
2019-01-27T06:43:20.209Z,5.90
2019-01-27T06:45:49.261Z,5.90
2019-01-27T06:48:18.429Z,5.90
2019-01-27T06:50:47.473Z,5.90
2019-01-27T06:53:16.567Z,5.90
2019-01-27T06:55:45.868Z,5.90
2019-01-27T06:58:15.025Z,5.80
2019-01-27T07:01:03.670Z,5.80
2019-01-27T07:03:53.241Z,5.90
2019-01-27T07:06:39.362Z,5.90
2019-01-27T07:09:31.620Z,6.00
2019-01-27T07:12:20.530Z,6.00
2019-01-27T07:15:08.090Z,5.90
2019-01-27T07:18:08.484Z,6.00
2019-01-27T07:20:43.619Z,5.90
2019-01-27T07:23:30.282Z,5.90
2019-01-27T07:26:18.396Z,5.90
2019-01-27T07:28:56.169Z,5.90
2019-01-27T07:31:53.552Z,5.90
2019-01-27T07:34:40.105Z,5.90
2019-01-27T07:37:26.988Z,5.90
2019-01-27T07:40:20.194Z,5.90
2019-01-27T07:43:17.252Z,5.90
2019-01-27T07:45:54.029Z,5.90
2019-01-27T07:48:51.492Z,5.90
2019-01-27T07:51:39.564Z,5.90
2019-01-27T07:54:22.705Z,5.90
2019-01-27T07:57:05.592Z,5.90
2019-01-27T08:00:02.620Z,5.90
2019-01-27T08:02:40.750Z,5.90
2019-01-27T08:05:47.820Z,5.90
2019-01-27T08:08:34.045Z,5.90
2019-01-27T08:11:16.521Z,5.90
2019-01-27T08:14:10.700Z,6.00
2019-01-27T08:16:52.965Z,6.00
2019-01-27T08:19:38.288Z,6.00
2019-01-27T08:22:24.909Z,6.00
2019-01-27T08:25:11.948Z,6.10
2019-01-27T08:28:03.106Z,6.10
2019-01-27T08:30:57.188Z,6.10
2019-01-27T08:33:35.834Z,6.10
2019-01-27T08:36:19.958Z,6.30
2019-01-27T08:38:56.640Z,6.50
2019-01-27T08:41:39.920Z,6.50
2019-01-27T08:44:34.362Z,6.50
2019-01-27T08:47:03.791Z,6.50
2019-01-27T08:49:33.404Z,6.50
2019-01-27T08:52:02.469Z,6.50
2019-01-27T08:54:31.385Z,6.50
2019-01-27T08:57:00.439Z,6.50
2019-01-27T08:59:29.400Z,6.50
2019-01-27T09:02:20.289Z,6.50
2019-01-27T09:04:56.902Z,6.60
2019-01-27T09:07:50.836Z,6.60
2019-01-27T09:10:48.004Z,6.80
2019-01-27T09:13:35.130Z,6.90
2019-01-27T09:16:13.298Z,6.90
2019-01-27T09:19:00.791Z,7.00
2019-01-27T09:21:48.832Z,7.10
2019-01-27T09:24:35.607Z,7.10
2019-01-27T09:27:23.892Z,7.20
2019-01-27T09:30:09.060Z,7.20
2019-01-27T09:33:00.209Z,7.30
2019-01-27T09:35:57.060Z,7.30
2019-01-27T09:38:48.432Z,7.30
2019-01-27T09:41:35.367Z,7.40
2019-01-27T09:44:26.447Z,7.40
2019-01-27T09:47:04.784Z,7.50
2019-01-27T09:49:41.238Z,7.50
2019-01-27T09:52:22.615Z,7.50
2019-01-27T09:55:10.616Z,7.50
2019-01-27T09:57:50.904Z,7.70
2019-01-27T10:00:48.041Z,7.90
2019-01-27T10:03:34.891Z,8.00
2019-01-27T10:06:13.091Z,8.10
2019-01-27T10:08:59.628Z,8.20
2019-01-27T10:11:47.619Z,8.20
2019-01-27T10:14:41.699Z,8.20
2019-01-27T10:17:32.477Z,8.20
2019-01-27T10:20:20.456Z,8.20
2019-01-27T10:23:17.764Z,8.20
2019-01-27T10:25:59.500Z,8.30
2019-01-27T10:28:44.276Z,8.30
2019-01-27T10:31:21.765Z,8.40
2019-01-27T10:34:07.829Z,8.40
2019-01-27T10:37:01.992Z,8.50
2019-01-27T10:39:38.821Z,8.50
2019-01-27T10:42:25.749Z,8.50
2019-01-27T10:45:29.233Z,8.50
2019-01-27T10:48:16.195Z,8.40
2019-01-27T10:51:01.859Z,8.50
2019-01-27T10:53:39.419Z,8.50
2019-01-27T10:56:18.184Z,8.50
2019-01-27T10:58:54.245Z,8.50
2019-01-27T11:01:31.184Z,8.50
2019-01-27T11:04:18.173Z,8.50
2019-01-27T11:06:59.881Z,8.50
2019-01-27T11:10:03.044Z,8.50
2019-01-27T11:12:47.022Z,8.60
2019-01-27T11:15:41.581Z,8.50
2019-01-27T11:18:20.635Z,8.50
2019-01-27T11:21:10.589Z,8.40
2019-01-27T11:24:13.995Z,8.40
2019-01-27T11:27:07.868Z,8.30
2019-01-27T11:30:07.846Z,8.30
2019-01-27T11:32:59.077Z,8.30
2019-01-27T11:35:39.389Z,8.30
2019-01-27T11:38:26.305Z,8.30
2019-01-27T11:41:09.341Z,8.40
2019-01-27T11:43:56.196Z,8.30
2019-01-27T11:46:43.114Z,8.30
2019-01-27T11:49:28.301Z,8.30
2019-01-27T11:52:15.600Z,8.30
2019-01-27T11:54:42.466Z,8.30
2019-01-27T11:57:22.219Z,8.30
2019-01-27T11:59:51.422Z,8.30
2019-01-27T12:02:20.337Z,8.30
2019-01-27T12:04:49.331Z,8.40
2019-01-27T12:07:18.753Z,8.40
2019-01-27T12:09:47.946Z,8.50
2019-01-27T12:12:19.661Z,8.50
2019-01-27T12:14:48.772Z,8.60
2019-01-27T12:17:17.837Z,8.60
2019-01-27T12:19:46.776Z,8.70
2019-01-27T12:22:15.777Z,8.70
2019-01-27T12:24:44.753Z,8.70
2019-01-27T12:27:13.890Z,8.70
2019-01-27T12:29:46.301Z,8.80
2019-01-27T12:32:17.144Z,8.80
2019-01-27T12:34:46.202Z,8.80
2019-01-27T12:37:15.325Z,8.70
2019-01-27T12:39:44.262Z,8.70
2019-01-27T12:42:13.352Z,8.70
2019-01-27T12:44:42.346Z,8.70
2019-01-27T12:47:11.814Z,8.80
2019-01-27T12:49:40.965Z,8.80
2019-01-27T12:52:09.988Z,8.90
2019-01-27T12:54:38.999Z,9.00
2019-01-27T12:57:08.105Z,9.10
2019-01-27T12:59:37.172Z,9.20
2019-01-27T13:02:06.411Z,9.20
2019-01-27T13:04:35.433Z,9.20
2019-01-27T13:07:04.488Z,9.20
2019-01-27T13:09:33.538Z,9.30
2019-01-27T13:12:02.830Z,9.20
2019-01-27T13:14:32.281Z,9.20
2019-01-27T13:17:01.491Z,9.10
2019-01-27T13:19:30.448Z,9.10
2019-01-27T13:21:59.403Z,9.20
2019-01-27T13:24:28.328Z,9.10
2019-01-27T13:26:57.722Z,9.00
2019-01-27T13:29:26.676Z,9.10
2019-01-27T13:31:55.776Z,9.00
2019-01-27T13:34:24.909Z,9.00
2019-01-27T13:36:55.203Z,9.00
2019-01-27T13:39:24.323Z,9.00
2019-01-27T13:41:53.511Z,9.00
2019-01-27T13:44:22.820Z,9.00
2019-01-27T13:46:51.925Z,9.00
2019-01-27T13:49:21.394Z,8.90
2019-01-27T13:51:50.477Z,8.90
2019-01-27T13:54:19.619Z,8.80
2019-01-27T13:56:48.670Z,8.80
2019-01-27T13:59:17.794Z,8.80
2019-01-27T14:01:46.883Z,8.80
2019-01-27T14:04:15.977Z,8.80
2019-01-27T14:06:45.169Z,8.80
2019-01-27T14:09:14.455Z,8.80
2019-01-27T14:11:43.684Z,8.80
2019-01-27T14:14:12.962Z,8.80
2019-01-27T14:16:42.276Z,8.80
2019-01-27T14:19:11.455Z,8.90
2019-01-27T14:21:40.570Z,8.90
2019-01-27T14:24:09.719Z,8.80
2019-01-27T14:26:38.847Z,8.80
2019-01-27T14:29:08.679Z,8.80
2019-01-27T14:31:38.147Z,8.90
2019-01-27T14:34:07.535Z,8.90
2019-01-27T14:36:37.004Z,8.90
2019-01-27T14:39:08.646Z,8.90
2019-01-27T14:41:37.931Z,8.90
2019-01-27T14:44:07.177Z,8.90
2019-01-27T14:46:36.221Z,8.90
2019-01-27T14:49:05.976Z,8.90
2019-01-27T14:51:35.350Z,8.90
2019-01-27T14:54:05.006Z,8.90
2019-01-27T14:56:34.287Z,8.90
2019-01-27T14:59:03.558Z,8.90
2019-01-27T15:01:34.294Z,8.90
2019-01-27T15:04:03.642Z,8.90
2019-01-27T15:06:33.802Z,8.80
2019-01-27T15:09:04.258Z,8.90
2019-01-27T15:11:33.809Z,8.90
2019-01-27T15:14:03.005Z,8.90
2019-01-27T15:16:32.265Z,8.90
2019-01-27T15:19:01.507Z,8.90
2019-01-27T15:21:31.116Z,8.90
2019-01-27T15:24:00.419Z,8.80
2019-01-27T15:26:29.994Z,8.90
2019-01-27T15:28:59.971Z,8.80
2019-01-27T15:31:28.864Z,8.80
2019-01-27T15:33:57.777Z,9.00
2019-01-27T15:36:26.836Z,9.00
2019-01-27T15:38:55.748Z,9.00
2019-01-27T15:41:24.639Z,9.00
2019-01-27T15:43:53.444Z,8.90
2019-01-27T15:46:22.440Z,8.90
2019-01-27T15:48:51.335Z,8.80
2019-01-27T15:51:20.211Z,8.80
2019-01-27T15:53:49.570Z,8.80
2019-01-27T15:56:18.778Z,8.80
2019-01-27T15:58:47.752Z,8.70
2019-01-27T16:01:17.336Z,8.70
2019-01-27T16:03:46.225Z,8.60
2019-01-27T16:06:15.132Z,8.60
2019-01-27T16:08:44.124Z,8.70
2019-01-27T16:11:13.003Z,8.60
2019-01-27T16:13:41.891Z,8.50
2019-01-27T16:16:10.808Z,8.50
2019-01-27T16:18:39.843Z,8.50
2019-01-27T16:21:08.852Z,9.50
2019-01-27T16:23:40.500Z,8.50
2019-01-27T16:26:09.772Z,8.50
2019-01-27T16:28:38.719Z,8.50
2019-01-27T16:31:41.865Z,8.40
2019-01-27T16:34:16.420Z,8.50
2019-01-27T16:36:45.345Z,8.40
2019-01-27T16:39:14.788Z,8.40
2019-01-27T16:41:43.669Z,8.40
2019-01-27T16:44:13.084Z,8.40
2019-01-27T16:46:41.898Z,8.40
2019-01-27T16:49:11.119Z,8.30
2019-01-27T16:51:40.336Z,8.30
2019-01-27T16:54:09.263Z,8.30
2019-01-27T16:56:38.292Z,8.40
2019-01-27T16:59:07.555Z,8.30
2019-01-27T17:01:36.565Z,8.30
2019-01-27T17:04:05.651Z,8.20
2019-01-27T17:06:34.613Z,8.20
2019-01-27T17:09:05.715Z,8.10
2019-01-27T17:11:34.748Z,8.10
2019-01-27T17:14:04.681Z,8.00
2019-01-27T17:16:34.008Z,7.90
2019-01-27T17:19:03.107Z,7.90
2019-01-27T17:21:32.317Z,7.90
2019-01-27T17:24:01.192Z,7.80
2019-01-27T17:26:30.533Z,7.80
2019-01-27T17:28:59.412Z,7.90
2019-01-27T17:31:28.383Z,8.00
2019-01-27T17:33:57.387Z,8.10
2019-01-27T17:36:26.344Z,8.10
2019-01-27T17:38:55.355Z,8.00
2019-01-27T17:41:24.280Z,7.90
2019-01-27T17:43:53.068Z,7.80
2019-01-27T17:46:21.924Z,7.70
2019-01-27T17:48:50.796Z,7.70
2019-01-27T17:51:19.779Z,7.70
2019-01-27T17:53:55.517Z,7.60
2019-01-27T17:56:24.901Z,7.50
2019-01-27T17:59:15.984Z,7.50
2019-01-27T18:02:10.004Z,7.50
2019-01-27T18:05:13.129Z,7.50
2019-01-27T18:08:10.099Z,7.40
2019-01-27T18:11:00.920Z,7.30
2019-01-27T18:13:36.147Z,7.30
2019-01-27T18:16:06.955Z,7.30
2019-01-27T18:18:35.924Z,7.30
2019-01-27T18:21:05.701Z,7.20
2019-01-27T18:23:35.171Z,7.10
2019-01-27T18:26:04.567Z,7.10
2019-01-27T18:28:33.482Z,7.10
2019-01-27T18:31:02.520Z,7.00
2019-01-27T18:33:31.555Z,7.00
2019-01-27T18:36:01.027Z,7.00
2019-01-27T18:38:30.004Z,6.90
2019-01-27T18:40:59.012Z,6.90
2019-01-27T18:43:28.232Z,6.90
2019-01-27T18:45:57.510Z,6.90
2019-01-27T18:48:26.490Z,6.90
2019-01-27T18:50:56.292Z,6.90
2019-01-27T18:53:39.628Z,6.80
2019-01-27T18:56:16.314Z,6.80
2019-01-27T18:58:57.537Z,6.80
2019-01-27T19:01:44.119Z,6.70
2019-01-27T19:04:32.084Z,6.70
2019-01-27T19:07:32.468Z,6.70
2019-01-27T19:10:23.452Z,6.70
2019-01-27T19:13:14.183Z,6.70
2019-01-27T19:16:08.292Z,6.70
2019-01-27T19:18:54.908Z,6.70
2019-01-27T19:21:37.064Z,6.60
2019-01-27T19:24:14.603Z,6.60
2019-01-27T19:26:55.985Z,6.60
2019-01-27T19:29:43.508Z,6.60
2019-01-27T19:32:38.844Z,6.50
2019-01-27T19:35:19.304Z,6.40
2019-01-27T19:37:59.714Z,6.30
2019-01-27T19:40:49.227Z,6.30
2019-01-27T19:43:41.628Z,6.20
2019-01-27T19:46:22.508Z,6.20
2019-01-27T19:49:19.551Z,6.20
2019-01-27T19:52:26.317Z,6.20
2019-01-27T19:55:07.528Z,6.10
2019-01-27T19:57:44.546Z,6.00
2019-01-27T20:00:23.093Z,5.90
2019-01-27T20:03:20.824Z,5.90
2019-01-27T20:05:59.281Z,5.80
2019-01-27T20:08:46.277Z,5.70
2019-01-27T20:11:53.024Z,5.80
2019-01-27T20:14:35.590Z,5.70
2019-01-27T20:17:12.775Z,5.70
2019-01-27T20:20:00.644Z,5.70
2019-01-27T20:22:47.104Z,5.70
2019-01-27T20:25:50.365Z,5.50
2019-01-27T20:28:38.374Z,5.60
2019-01-27T20:31:20.016Z,5.60
2019-01-27T20:34:08.216Z,5.50
2019-01-27T20:36:54.956Z,5.20
2019-01-27T20:39:29.012Z,5.10
2019-01-27T20:42:03.400Z,5.10
2019-01-27T20:44:48.480Z,5.10
2019-01-27T20:47:31.408Z,4.90
2019-01-27T20:50:10.520Z,4.90
2019-01-27T20:52:48.482Z,4.80
2019-01-27T20:55:36.436Z,4.70
2019-01-27T20:58:22.213Z,4.60
2019-01-27T21:01:16.024Z,4.60
2019-01-27T21:04:07.018Z,4.50
2019-01-27T21:06:50.240Z,4.50
2019-01-27T21:09:34.412Z,4.50
2019-01-27T21:12:21.960Z,4.40
2019-01-27T21:15:08.753Z,4.40
2019-01-27T21:18:06.049Z,4.40
2019-01-27T21:20:35.036Z,4.40
2019-01-27T21:23:04.308Z,4.40
2019-01-27T21:25:33.312Z,4.30
2019-01-27T21:28:02.201Z,4.30
2019-01-27T21:30:31.156Z,4.30
2019-01-27T21:32:59.987Z,4.20
2019-01-27T21:35:28.957Z,4.20
2019-01-27T21:37:57.876Z,4.20
2019-01-27T21:40:26.762Z,4.10
2019-01-27T21:42:55.674Z,4.10
2019-01-27T21:45:24.572Z,4.10
2019-01-27T21:47:53.576Z,4.00
2019-01-27T21:50:22.496Z,4.10
2019-01-27T21:52:51.381Z,4.10
2019-01-27T21:55:20.680Z,4.10
2019-01-27T21:57:49.640Z,4.10
2019-01-27T22:00:20.780Z,4.10
2019-01-27T22:02:49.628Z,4.10
2019-01-27T22:05:18.822Z,4.10
2019-01-27T22:07:47.832Z,4.20
2019-01-27T22:10:16.856Z,4.20
2019-01-27T22:12:45.809Z,4.20
2019-01-27T22:15:15.392Z,4.30
2019-01-27T22:17:44.472Z,4.30
2019-01-27T22:20:14.972Z,4.30
2019-01-27T22:22:43.891Z,4.30
2019-01-27T22:25:13.768Z,4.30
2019-01-27T22:27:42.713Z,4.40
2019-01-27T22:30:14.852Z,4.30
2019-01-27T22:32:43.790Z,4.30
2019-01-27T22:35:13.261Z,4.30
2019-01-27T22:37:42.234Z,4.40
2019-01-27T22:40:12.102Z,4.30
2019-01-27T22:42:41.104Z,4.40
2019-01-27T22:45:10.860Z,4.30
2019-01-27T22:47:40.036Z,4.30
2019-01-27T22:50:11.624Z,4.30
2019-01-27T22:52:40.643Z,4.30
2019-01-27T22:55:10.084Z,4.40
2019-01-27T22:57:39.088Z,4.40
2019-01-27T23:00:26.064Z,4.40
2019-01-27T23:02:54.981Z,4.40
2019-01-27T23:05:23.956Z,4.40
2019-01-27T23:07:53.312Z,4.40
2019-01-27T23:10:22.186Z,4.40
2019-01-27T23:12:51.164Z,4.40
2019-01-27T23:15:20.718Z,4.40
2019-01-27T23:17:49.596Z,4.40
2019-01-27T23:20:18.572Z,4.40
2019-01-27T23:22:47.448Z,4.40
2019-01-27T23:25:16.445Z,4.40
2019-01-27T23:27:45.450Z,4.40
2019-01-27T23:30:14.821Z,4.40
2019-01-27T23:32:43.789Z,4.40
2019-01-27T23:35:12.763Z,4.30
2019-01-27T23:37:41.668Z,4.30
2019-01-27T23:40:10.720Z,4.30
2019-01-27T23:42:39.727Z,4.30
2019-01-27T23:45:08.928Z,4.30
2019-01-27T23:47:37.944Z,4.30
2019-01-27T23:50:07.070Z,4.20
2019-01-27T23:52:36.081Z,4.30
2019-01-27T23:55:05.656Z,4.30
2019-01-27T23:57:34.524Z,4.30
